Time;durP1;ratioP1;P1;durP2;ratioP2;P2;SDS_P1;SDS_P2;PMS_P1;PMS_P2;Temp;Humidity;BMP_temperature;BMP_pressure;BME280_temperature;BME280_humidity;BME280_pressure;Samples;Min_cycle;Max_cycle;Signal;HPM_P1;HPM_P2
2024/01/30 00:02:04;;;;;;;51.30;27.00;;;;;;;-2.13;78.31;99071.75;104738;1263;102565;-77
2024/01/30 00:04:32;;;;;;;51.10;29.20;;;;;;;-2.14;78.26;99074.94;104816;1268;101473;-77
2024/01/30 00:07:00;;;;;;;54.30;31.60;;;;;;;-2.16;78.13;99071.56;104820;1261;99471;-77
2024/01/30 00:09:28;;;;;;;53.50;31.20;;;;;;;-2.19;78.05;99069.27;104747;1261;98818;-77
2024/01/30 00:11:55;;;;;;;41.80;25.00;;;;;;;-2.22;78.05;99065.94;104746;1270;98494;-77
2024/01/30 00:14:24;;;;;;;39.70;23.80;;;;;;;-2.26;78.07;99065.81;104764;1263;102384;-77
2024/01/30 00:16:52;;;;;;;35.70;21.60;;;;;;;-2.28;78.18;99063.81;104708;1261;101630;-84
2024/01/30 00:19:20;;;;;;;37.30;21.60;;;;;;;-2.28;78.17;99062.94;104841;1266;100168;-84
2024/01/30 00:21:48;;;;;;;41.30;23.90;;;;;;;-2.27;78.19;99064.12;104823;1269;99262;-85
2024/01/30 00:24:15;;;;;;;40.30;23.90;;;;;;;-2.27;78.29;99064.80;104723;1267;99099;-84
2024/01/30 00:26:44;;;;;;;30.50;17.30;;;;;;;-2.30;78.34;99066.78;104834;1269;103571;-85
2024/01/30 00:29:12;;;;;;;27.70;16.30;;;;;;;-2.29;78.47;99066.90;104806;1258;100377;-85
2024/01/30 00:31:39;;;;;;;26.60;16.30;;;;;;;-2.29;78.49;99071.09;104797;1270;100156;-74
2024/01/30 00:34:07;;;;;;;26.80;15.20;;;;;;;-2.29;78.53;99072.65;104752;1259;99148;-74
2024/01/30 00:36:38;;;;;;;25.90;15.30;;;;;;;-2.31;78.56;99070.89;104844;1260;99257;-74
2024/01/30 00:39:09;;;;;;;25.90;15.30;;;;;;;-2.34;78.56;99071.23;104817;1269;103770;-74
2024/01/30 00:41:36;;;;;;;24.10;15.30;;;;;;;-2.35;78.54;99068.30;104774;1270;100321;-78
2024/01/30 00:44:04;;;;;;;23.60;14.70;;;;;;;-2.37;78.54;99066.98;104701;1273;99984;-78
2024/01/30 00:46:32;;;;;;;24.60;14.90;;;;;;;-2.37;78.78;99068.39;104798;1278;97893;-86
2024/01/30 00:49:00;;;;;;;27.30;16.00;;;;;;;-2.36;78.90;99067.98;104791;1263;98427;-86
2024/01/30 00:51:29;;;;;;;25.50;15.60;;;;;;;-2.36;78.77;99066.39;104798;1259;103751;-86
2024/01/30 00:53:57;;;;;;;25.80;15.50;;;;;;;-2.35;78.76;99063.00;104751;1273;101252;-86
2024/01/30 00:56:25;;;;;;;26.70;15.40;;;;;;;-2.34;78.79;99063.84;104722;1263;100074;-85
2024/01/30 00:58:52;;;;;;;22.10;14.30;;;;;;;-2.34;78.65;99061.38;104695;1269;99074;-85
2024/01/30 01:01:20;;;;;;;24.70;14.20;;;;;;;-2.34;78.76;99058.20;104741;1263;98492;-74
2024/01/30 01:03:48;;;;;;;25.40;15.60;;;;;;;-2.36;78.67;99055.66;104670;1270;103518;-74
2024/01/30 01:06:16;;;;;;;22.30;14.70;;;;;;;-2.39;78.65;99049.66;104730;1270;101459;-74
2024/01/30 01:08:43;;;;;;;23.00;14.30;;;;;;;-2.39;78.69;99046.86;104727;1260;100246;-74
2024/01/30 01:11:11;;;;;;;22.60;14.30;;;;;;;-2.36;78.82;99041.38;104759;1263;97902;-74
2024/01/30 01:13:39;;;;;;;22.90;14.30;;;;;;;-2.36;78.75;99038.20;104675;1270;98418;-74
2024/01/30 01:16:06;;;;;;;22.80;13.90;;;;;;;-2.39;78.66;99032.57;104727;1260;103702;-85
2024/01/30 01:18:34;;;;;;;22.80;13.70;;;;;;;-2.45;78.54;99027.98;104764;1269;100449;-86
2024/01/30 01:21:02;;;;;;;22.30;13.30;;;;;;;-2.48;78.64;99028.19;104710;1258;99651;-85
2024/01/30 01:23:30;;;;;;;20.20;12.90;;;;;;;-2.51;78.67;99028.34;104801;1269;97957;-85
2024/01/30 01:25:59;;;;;;;17.90;10.90;;;;;;;-2.55;78.76;99022.20;104727;1271;98572;-85
2024/01/30 01:28:27;;;;;;;17.00;11.10;;;;;;;-2.55;78.96;99022.21;104719;1260;103781;-84
2024/01/30 01:30:58;;;;;;;18.70;12.20;;;;;;;-2.52;78.98;99023.64;104750;1270;101681;-75
2024/01/30 01:33:26;;;;;;;13.30;8.80;;;;;;;-2.51;78.94;99022.70;104705;1262;100198;-74
2024/01/30 01:35:54;;;;;;;19.00;12.10;;;;;;;-2.52;79.00;99025.58;104689;1263;97980;-75
2024/01/30 01:38:22;;;;;;;19.60;12.30;;;;;;;-2.53;78.90;99022.27;104703;1269;99775;-74
2024/01/30 01:40:49;;;;;;;27.50;21.70;;;;;;;-2.55;78.99;99025.22;104783;1269;103568;-74
2024/01/30 01:43:17;;;;;;;19.30;13.80;;;;;;;-2.56;79.00;99025.98;104797;1259;101171;-74
2024/01/30 01:45:46;;;;;;;21.50;12.70;;;;;;;-2.56;79.09;99027.73;104818;1256;99470;-75
2024/01/30 01:48:14;;;;;;;21.40;12.50;;;;;;;-2.56;79.08;99026.00;104811;1268;97905;-74
2024/01/30 01:50:43;;;;;;;20.80;13.60;;;;;;;-2.57;79.00;99025.52;104819;1261;99204;-74
2024/01/30 01:53:11;;;;;;;21.90;13.00;;;;;;;-2.58;79.01;99022.21;104799;1278;102102;-74
2024/01/30 01:55:39;;;;;;;20.30;13.00;;;;;;;-2.58;79.05;99022.94;104876;1258;101214;-78
2024/01/30 01:58:08;;;;;;;20.10;12.80;;;;;;;-2.58;79.09;99026.79;104805;1268;99942;-78
2024/01/30 02:00:39;;;;;;;17.60;11.90;;;;;;;-2.58;79.10;99026.46;104748;1261;98852;-78
2024/01/30 02:03:07;;;;;;;17.70;11.70;;;;;;;-2.59;79.21;99026.52;104717;1261;98429;-78
2024/01/30 02:05:38;;;;;;;18.60;11.90;;;;;;;-2.59;79.20;99029.52;104757;1270;103674;-78
2024/01/30 02:08:06;;;;;;;19.60;12.20;;;;;;;-2.60;79.03;99026.21;104912;1257;101737;-77
2024/01/30 02:10:34;;;;;;;20.50;12.10;;;;;;;-2.64;78.97;99027.52;104482;1266;99345;-78
2024/01/30 02:13:02;;;;;;;18.60;12.00;;;;;;;-2.67;79.07;99024.38;104797;1260;98821;-78
2024/01/30 02:15:30;;;;;;;20.00;11.80;;;;;;;-2.69;79.11;99023.77;104822;1257;98389;-74
2024/01/30 02:17:57;;;;;;;18.30;12.10;;;;;;;-2.69;79.15;99023.23;104877;1257;102146;-85
2024/01/30 02:20:26;;;;;;;16.70;11.10;;;;;;;-2.70;79.02;99020.14;104843;1260;101350;-82
2024/01/30 02:22:55;;;;;;;18.20;10.90;;;;;;;-2.72;78.97;99019.67;104758;1270;99884;-85
2024/01/30 02:25:35;;;;;;;19.90;11.80;;;;;;;-2.74;79.00;99018.21;104782;1262;97909;-85
2024/01/30 02:28:03;;;;;;;17.80;11.00;;;;;;;-2.74;78.95;99022.27;104831;1268;99266;-85
2024/01/30 02:30:31;;;;;;;16.60;10.70;;;;;;;-2.75;78.90;99021.63;104870;1256;102173;-86
2024/01/30 02:32:59;;;;;;;16.10;10.40;;;;;;;-2.78;78.86;99018.83;104861;1278;101334;-77
2024/01/30 02:35:26;;;;;;;16.90;10.60;;;;;;;-2.78;78.90;99021.14;104860;1254;100008;-78
2024/01/30 02:37:54;;;;;;;16.30;12.00;;;;;;;-2.81;78.93;99019.71;104712;1260;97990;-78
2024/01/30 02:40:22;;;;;;;19.10;12.60;;;;;;;-2.85;78.84;99019.23;104853;1258;98335;-78
2024/01/30 02:42:49;;;;;;;18.50;10.60;;;;;;;-2.87;78.84;99012.67;104858;1261;103268;-77
2024/01/30 02:45:17;;;;;;;14.10;9.60;;;;;;;-2.90;78.93;99010.51;104743;1271;101397;-77
2024/01/30 02:47:47;;;;;;;14.80;9.10;;;;;;;-2.91;79.04;99012.56;104768;1261;98872;-77
2024/01/30 02:50:14;;;;;;;26.40;14.50;;;;;;;-2.93;79.02;99007.19;104789;1260;99133;-78
2024/01/30 02:52:43;;;;;;;21.30;12.20;;;;;;;-2.96;79.01;99007.34;104806;1260;98448;-78
2024/01/30 02:55:12;;;;;;;16.70;10.20;;;;;;;-2.96;79.05;99004.52;104924;1260;103268;-78
2024/01/30 02:57:40;;;;;;;14.30;8.50;;;;;;;-2.95;79.11;99005.34;104766;1261;101395;-77
2024/01/30 03:00:09;;;;;;;11.90;8.40;;;;;;;-2.94;79.15;99001.79;104766;1261;99882;-77
2024/01/30 03:02:38;;;;;;;13.10;8.40;;;;;;;-2.96;79.16;98998.89;104686;1270;97915;-74
2024/01/30 03:05:07;;;;;;;13.20;9.10;;;;;;;-2.98;79.29;99004.14;104794;1260;98354;-74
2024/01/30 03:07:35;;;;;;;11.80;8.30;;;;;;;-3.00;79.26;99009.16;104794;1268;103141;-74
2024/01/30 03:10:03;;;;;;;12.50;8.30;;;;;;;-3.01;79.26;99010.77;104732;1260;101127;-74
2024/01/30 03:12:31;;;;;;;13.20;8.30;;;;;;;-3.01;79.27;99007.44;104818;1270;100191;-74
2024/01/30 03:14:59;;;;;;;12.30;8.20;;;;;;;-3.01;79.32;99007.27;104675;1261;97885;-75
2024/01/30 03:17:26;;;;;;;12.20;8.40;;;;;;;-3.01;79.32;99006.59;104749;1261;98353;-74
2024/01/30 03:19:54;;;;;;;14.00;8.70;;;;;;;-3.02;79.31;99004.75;104674;1260;102108;-74
2024/01/30 03:22:22;;;;;;;14.80;9.20;;;;;;;-3.04;79.36;98999.71;104715;1257;101287;-74
2024/01/30 03:24:49;;;;;;;12.70;8.60;;;;;;;-3.05;79.34;98998.54;104684;1260;99275;-74
2024/01/30 03:27:17;;;;;;;11.80;8.20;;;;;;;-3.04;79.43;98997.08;104850;1261;97967;-74
2024/01/30 03:29:45;;;;;;;11.10;7.70;;;;;;;-3.03;79.42;98993.36;104813;1258;98370;-74
2024/01/30 03:32:12;;;;;;;15.60;9.50;;;;;;;-3.03;79.48;98997.70;104772;1260;102614;-75
2024/01/30 03:34:40;;;;;;;16.00;9.80;;;;;;;-3.02;79.43;98995.95;104804;1270;100352;-74
2024/01/30 03:37:08;;;;;;;17.30;10.90;;;;;;;-3.03;79.36;98994.58;104656;1260;99869;-74
2024/01/30 03:39:36;;;;;;;15.40;10.40;;;;;;;-3.05;79.29;98992.75;104766;1260;97896;-74
2024/01/30 03:42:04;;;;;;;12.50;8.90;;;;;;;-3.06;79.36;98989.44;104806;1260;98466;-74
2024/01/30 03:44:32;;;;;;;13.70;8.80;;;;;;;-3.05;79.36;98988.88;104802;1261;103841;-74
2024/01/30 03:46:59;;;;;;;13.40;8.50;;;;;;;-3.04;79.36;98995.02;104753;1265;101972;-74
2024/01/30 03:49:27;;;;;;;15.10;10.90;;;;;;;-3.02;79.35;98994.17;104764;1270;100068;-74
2024/01/30 03:51:55;;;;;;;21.10;13.10;;;;;;;-3.02;79.31;98986.94;104737;1270;97932;-74
2024/01/30 03:54:22;;;;;;;27.00;15.50;;;;;;;-3.03;79.18;98988.62;104753;1261;99134;-75
2024/01/30 03:56:50;;;;;;;29.20;15.60;;;;;;;-3.05;79.14;98985.36;104794;1266;103225;-75
2024/01/30 03:59:22;;;;;;;21.40;12.90;;;;;;;-3.06;79.23;98987.18;104739;1260;101642;-74
2024/01/30 04:01:49;;;;;;;22.60;12.40;;;;;;;-3.07;79.25;98985.98;104813;1261;99779;-75
2024/01/30 04:04:18;;;;;;;22.70;11.50;;;;;;;-3.09;79.27;98986.95;104757;1268;97912;-75
2024/01/30 04:06:47;;;;;;;26.90;13.00;;;;;;;-3.11;79.30;98983.41;104934;1254;98320;-75
2024/01/30 04:09:14;;;;;;;24.40;12.30;;;;;;;-3.14;79.37;98982.67;104800;1255;103486;-75
2024/01/30 04:11:42;;;;;;;20.40;11.10;;;;;;;-3.14;79.36;98986.25;104769;1270;101613;-74
2024/01/30 04:14:10;;;;;;;23.60;12.00;;;;;;;-3.13;79.45;98984.20;104751;1257;99679;-74
2024/01/30 04:16:38;;;;;;;25.10;12.60;;;;;;;-3.13;79.44;98984.94;104841;1270;97922;-74
2024/01/30 04:19:05;;;;;;;26.40;12.90;;;;;;;-3.11;79.50;98985.18;104849;1258;99754;-74
2024/01/30 04:21:33;;;;;;;23.90;12.70;;;;;;;-3.09;79.47;98982.78;104841;1259;102675;-74
2024/01/30 04:24:01;;;;;;;23.10;11.70;;;;;;;-3.10;79.41;98983.66;104728;1270;101356;-74
2024/01/30 04:26:29;;;;;;;22.50;12.00;;;;;;;-3.10;79.34;98986.14;104692;1270;99932;-74
2024/01/30 04:28:56;;;;;;;27.90;12.90;;;;;;;-3.11;79.36;98986.23;104740;1256;97998;-74
2024/01/30 04:31:24;;;;;;;20.60;13.20;;;;;;;-3.15;79.37;98986.61;104841;1270;98412;-75
2024/01/30 04:33:52;;;;;;;24.20;13.30;;;;;;;-3.16;79.44;98990.39;104817;1259;103612;-74
2024/01/30 04:36:19;;;;;;;22.90;12.30;;;;;;;-3.15;79.48;98994.02;104790;1258;100303;-75
2024/01/30 04:38:47;;;;;;;21.30;12.20;;;;;;;-3.15;79.44;98996.67;104814;1259;99819;-75
2024/01/30 07:42:20;;;;;;;50.00;30.60;;;;;;;-2.70;81.03;99022.62;104629;1264;101923;-73
2024/01/30 07:44:48;;;;;;;49.90;30.10;;;;;;;-2.62;81.02;99021.92;104522;1262;110042;-73
2024/01/30 07:47:15;;;;;;;56.20;33.30;;;;;;;-2.56;80.98;99019.83;104525;1265;98063;-73
2024/01/30 07:49:43;;;;;;;54.00;31.70;;;;;;;-2.48;80.97;99022.16;104566;1261;98443;-73
2024/01/30 07:52:11;;;;;;;50.10;29.60;;;;;;;-2.40;81.07;99009.53;104543;1264;103529;-73
2024/01/30 07:54:42;;;;;;;48.00;28.80;;;;;;;-2.32;81.15;99007.80;104495;1264;101370;-73
2024/01/30 07:57:09;;;;;;;50.60;28.80;;;;;;;-2.23;81.17;99002.83;104499;1258;99103;-74
2024/01/30 07:59:37;;;;;;;47.40;29.20;;;;;;;-2.15;81.27;99000.77;104480;1264;97932;-73
2024/01/30 08:02:05;;;;;;;45.90;27.40;;;;;;;-2.06;81.30;99000.19;104624;1262;99618;-86
2024/01/30 08:04:33;;;;;;;44.00;24.60;;;;;;;-1.93;81.36;98998.52;104622;1257;110521;-85
2024/01/30 08:07:00;;;;;;;34.70;21.70;;;;;;;-1.81;81.43;99002.70;104623;1256;100020;-85
2024/01/30 08:09:28;;;;;;;44.20;26.40;;;;;;;-1.67;81.29;99005.19;104631;1262;100325;-86
2024/01/30 08:11:56;;;;;;;42.10;25.50;;;;;;;-1.53;81.25;99005.91;104624;1262;101532;-85
2024/01/30 08:14:23;;;;;;;36.60;20.40;;;;;;;-1.41;81.19;99001.95;104597;1274;98721;-83
2024/01/30 08:16:51;;;;;;;36.00;21.30;;;;;;;-1.26;81.16;99005.75;104576;1257;103531;-76
2024/01/30 08:19:19;;;;;;;37.70;20.30;;;;;;;-1.12;81.06;99008.87;104597;1259;101564;-83
2024/01/30 08:21:47;;;;;;;30.40;18.00;;;;;;;-0.98;81.08;99005.33;104587;1263;98794;-83
2024/01/30 08:24:15;;;;;;;35.80;20.80;;;;;;;-0.85;80.94;99003.41;104542;1277;97958;-84
2024/01/30 08:26:43;;;;;;;34.20;20.10;;;;;;;-0.72;80.79;99006.05;104537;1264;99580;-84
2024/01/30 08:29:10;;;;;;;29.40;18.50;;;;;;;-0.59;80.60;99004.99;104603;1262;102184;-82
2024/01/30 08:31:38;;;;;;;28.40;16.10;;;;;;;-0.44;80.45;99000.59;104586;1271;101790;-74
2024/01/30 08:34:06;;;;;;;29.20;15.50;;;;;;;-0.28;80.22;98996.90;104508;1264;99960;-74
2024/01/30 08:36:34;;;;;;;22.30;13.50;;;;;;;-0.13;80.14;99001.00;104470;1270;97954;-74
2024/01/30 08:39:01;;;;;;;23.90;13.10;;;;;;;0.05;79.81;98998.70;104581;1262;98352;-84
2024/01/30 08:41:29;;;;;;;20.50;11.20;;;;;;;0.21;79.30;98996.44;104555;1262;103720;-84
2024/01/30 08:43:57;;;;;;;19.70;11.00;;;;;;;0.39;78.95;98995.35;104536;1266;101478;-83
2024/01/30 08:46:25;;;;;;;21.00;11.90;;;;;;;0.58;78.72;98990.81;104500;1273;99710;-84
2024/01/30 08:48:53;;;;;;;19.00;12.00;;;;;;;0.81;78.35;98993.40;104625;1273;99220;-83
2024/01/30 08:51:20;;;;;;;19.30;12.00;;;;;;;1.03;78.18;98992.30;104630;1263;98380;-83
2024/01/30 08:53:48;;;;;;;18.20;10.60;;;;;;;1.25;77.54;98988.89;104540;1260;103803;-84
2024/01/30 08:56:16;;;;;;;19.80;10.50;;;;;;;1.47;76.91;98988.09;104575;1264;101056;-82
2024/01/30 08:58:44;;;;;;;14.20;9.40;;;;;;;1.68;76.06;98983.23;104530;1259;100008;-83
2024/01/30 09:01:11;;;;;;;19.90;11.30;;;;;;;1.89;75.28;98981.45;104510;1263;97909;-73
2024/01/30 09:03:41;;;;;;;19.30;10.00;;;;;;;2.10;75.41;98983.95;104514;1263;98444;-74
2024/01/30 09:06:12;;;;;;;18.70;9.70;;;;;;;2.28;75.61;98981.75;104527;1273;103281;-74
2024/01/30 09:08:40;;;;;;;15.90;9.40;;;;;;;2.45;75.30;98982.69;104661;1261;101596;-73
2024/01/30 09:11:14;;;;;;;18.80;11.20;;;;;;;2.66;75.06;98984.61;104522;1262;99982;-74
2024/01/30 09:13:43;;;;;;;24.10;12.20;;;;;;;2.88;74.96;98983.36;104502;1262;97895;-73
2024/01/30 09:16:11;;;;;;;24.90;14.60;;;;;;;3.09;75.00;98984.77;104577;1274;98443;-73
2024/01/30 09:18:38;;;;;;;23.80;14.00;;;;;;;3.28;74.24;98976.84;104549;1262;103760;-73
2024/01/30 09:21:06;;;;;;;23.30;13.20;;;;;;;3.40;73.76;98977.56;104502;1260;100018;-74
2024/01/30 09:23:34;;;;;;;25.80;13.30;;;;;;;3.61;73.74;98977.83;104574;1262;100048;-73
2024/01/30 09:26:02;;;;;;;23.40;11.90;;;;;;;3.84;73.09;98980.11;104471;1263;99190;-73
2024/01/30 09:28:30;;;;;;;20.00;12.80;;;;;;;4.05;72.08;98977.36;104497;1273;98021;-74
2024/01/30 09:30:57;;;;;;;20.10;11.90;;;;;;;4.25;71.12;98970.97;104539;1259;102720;-74
2024/01/30 09:33:25;;;;;;;20.10;10.20;;;;;;;4.46;70.10;98964.70;104652;1273;101699;-74
2024/01/30 09:35:53;;;;;;;20.20;11.40;;;;;;;4.67;70.31;98962.07;104546;1264;100230;-74
2024/01/30 09:38:21;;;;;;;19.00;10.10;;;;;;;4.86;69.01;98961.61;104493;1259;98731;-74
2024/01/30 09:40:56;;;;;;;17.00;9.40;;;;;;;5.05;68.26;98956.72;104524;1264;98389;-74
2024/01/30 09:43:24;;;;;;;13.60;7.90;;;;;;;5.24;66.90;98951.55;104562;1264;103547;-74
2024/01/30 09:45:54;;;;;;;14.00;7.80;;;;;;;5.45;66.11;98948.05;104607;1275;100156;-74
2024/01/30 09:48:23;;;;;;;10.80;7.30;;;;;;;5.65;65.83;98945.79;104584;1259;99068;-74
2024/01/30 09:50:53;;;;;;;12.20;7.50;;;;;;;5.83;63.69;98942.71;104599;1273;97961;-75
2024/01/30 09:53:22;;;;;;;13.60;7.60;;;;;;;6.00;63.40;98940.19;104529;1262;98390;-75
2024/01/30 09:55:51;;;;;;;17.50;9.60;;;;;;;6.20;62.80;98938.27;104630;1259;103685;-75
2024/01/30 09:58:19;;;;;;;15.00;9.50;;;;;;;6.36;61.90;98929.57;104576;1262;101301;-74
2024/01/30 10:00:47;;;;;;;16.10;9.30;;;;;;;6.55;61.51;98928.45;104534;1262;99008;-74
2024/01/30 10:03:15;;;;;;;13.10;9.20;;;;;;;6.74;60.17;98921.58;104520;1262;98726;-74
2024/01/30 10:05:52;;;;;;;16.70;9.60;;;;;;;6.96;60.52;98920.67;104546;1270;98850;-74
2024/01/30 10:08:20;;;;;;;17.90;10.10;;;;;;;7.17;59.87;98917.40;104544;1262;102719;-74
2024/01/30 10:10:49;;;;;;;16.00;9.60;;;;;;;7.40;59.94;98917.58;104529;1258;101363;-74
2024/01/30 10:13:18;;;;;;;21.40;10.30;;;;;;;7.62;59.28;98914.27;104617;1260;100011;-74
2024/01/30 10:15:46;;;;;;;22.10;11.00;;;;;;;7.86;57.07;98910.22;104554;1262;97914;-88
2024/01/30 10:18:16;;;;;;;21.80;10.30;;;;;;;8.22;58.10;98905.94;104584;1262;99378;-88
2024/01/30 10:20:43;;;;;;;19.50;9.70;;;;;;;8.60;57.43;98898.33;104589;1265;103519;-88
2024/01/30 10:23:13;;;;;;;14.60;9.30;;;;;;;8.86;55.98;98894.78;104600;1262;101216;-86
2024/01/30 10:25:41;;;;;;;13.10;7.70;;;;;;;9.05;56.52;98895.86;104550;1275;100005;-86
2024/01/30 10:28:09;;;;;;;13.10;8.10;;;;;;;9.18;55.01;98888.88;104641;1258;98037;-88
2024/01/30 10:30:37;;;;;;;15.60;9.60;;;;;;;9.29;53.82;98881.91;104584;1262;98806;-88
2024/01/30 10:33:05;;;;;;;28.80;14.10;;;;;;;9.25;49.34;98878.21;104586;1273;103501;-80
2024/01/30 10:35:33;;;;;;;33.70;17.80;;;;;;;9.28;52.07;98880.77;104610;1262;101273;-80
2024/01/30 10:38:04;;;;;;;29.40;15.90;;;;;;;9.43;50.83;98880.64;104530;1264;100108;-80
2024/01/30 10:40:33;;;;;;;30.00;16.60;;;;;;;9.61;52.04;98878.48;104622;1262;98575;-79
2024/01/30 10:43:05;;;;;;;21.30;13.10;;;;;;;9.80;48.26;98877.11;104724;1259;99123;-80
2024/01/30 10:45:37;;;;;;;;;;;;;;;9.96;50.39;98874.90;104648;1263;102612;-80
2024/01/30 10:48:06;;;;;;;18.10;9.10;;;;;;;10.21;49.98;98871.63;104591;1262;101513;-80
2024/01/30 10:50:35;;;;;;;20.00;10.40;;;;;;;10.48;50.84;98866.17;104712;1259;99719;-80
2024/01/30 10:53:05;;;;;;;17.30;9.80;;;;;;;10.73;49.98;98860.41;104579;1270;97919;-86
2024/01/30 10:55:33;;;;;;;13.70;9.40;;;;;;;10.90;48.94;98854.67;104562;1273;97891;-86
2024/01/30 10:58:01;;;;;;;14.80;8.40;;;;;;;10.96;46.23;98849.95;104521;1264;104332;-86
2024/01/30 11:00:29;;;;;;;20.20;9.70;;;;;;;11.01;47.18;98851.30;104546;1262;101394;-86
2024/01/30 11:02:57;;;;;;;14.20;8.70;;;;;;;11.17;47.30;98845.27;104601;1262;98996;-79
2024/01/30 11:05:27;;;;;;;13.00;8.50;;;;;;;11.35;46.72;98846.61;104602;1260;98351;-79
2024/01/30 11:07:55;;;;;;;14.00;8.50;;;;;;;11.57;48.16;98841.59;104579;1264;98348;-79
2024/01/30 11:10:25;;;;;;;15.40;8.50;;;;;;;11.76;47.91;98841.81;104310;1259;103017;-80
2024/01/30 11:12:53;;;;;;;16.00;8.20;;;;;;;11.86;46.53;98839.92;104618;1259;100366;-79
2024/01/30 11:15:21;;;;;;;11.10;7.50;;;;;;;11.90;45.81;98838.41;104580;1264;100050;-79
2024/01/30 11:17:49;;;;;;;13.60;8.90;;;;;;;11.98;44.86;98835.89;104543;1274;97923;-74
2024/01/30 11:20:19;;;;;;;12.10;8.10;;;;;;;12.07;44.13;98830.61;104485;1263;99250;-75
2024/01/30 11:22:48;;;;;;;11.80;8.00;;;;;;;12.06;43.51;98824.73;104626;1258;103542;-74
2024/01/30 11:25:18;;;;;;;17.30;8.90;;;;;;;12.15;44.59;98824.83;104613;1258;100587;-75
2024/01/30 11:27:47;;;;;;;14.40;8.00;;;;;;;12.26;44.01;98824.23;104568;1263;100008;-74
2024/01/30 11:30:25;;;;;;;13.20;8.20;;;;;;;12.36;43.80;98820.14;104558;1260;99154;-74
2024/01/30 11:33:04;;;;;;;12.40;7.60;;;;;;;12.39;42.44;98820.10;104721;1262;99236;-80
2024/01/30 11:35:34;;;;;;;16.10;8.50;;;;;;;12.45;43.66;98813.93;104585;1262;103136;-75
2024/01/30 11:38:03;;;;;;;15.10;7.60;;;;;;;12.69;43.66;98812.39;104569;1257;100322;-75
2024/01/30 11:40:33;;;;;;;11.50;7.60;;;;;;;12.74;42.60;98811.58;104614;1262;99131;-74
2024/01/30 11:43:02;;;;;;;11.30;7.30;;;;;;;12.79;42.40;98804.84;104528;1263;97935;-75
2024/01/30 11:45:30;;;;;;;12.80;8.00;;;;;;;12.69;39.35;98802.84;104686;1265;98044;-74
2024/01/30 11:48:00;;;;;;;11.30;7.50;;;;;;;12.60;40.73;98802.29;104601;1263;102335;-74
2024/01/30 11:50:28;;;;;;;15.70;8.00;;;;;;;12.55;38.98;98802.69;104503;1259;100369;-73
2024/01/30 11:52:56;;;;;;;12.50;7.90;;;;;;;12.62;41.37;98800.02;104459;1259;98997;-74
2024/01/30 11:55:24;;;;;;;12.10;7.80;;;;;;;12.85;41.26;98795.42;104453;1264;97913;-74
2024/01/30 11:57:57;;;;;;;14.70;8.00;;;;;;;12.91;40.80;98793.80;104553;1265;98400;-74
2024/01/30 12:00:25;;;;;;;;;;;;;;;12.88;40.81;98788.39;104466;1263;103663;-73
2024/01/30 12:02:56;;;;;;;11.00;7.50;;;;;;;12.96;40.03;98788.56;104464;1272;100340;-74
2024/01/30 12:05:26;;;;;;;11.70;7.80;;;;;;;13.03;40.42;98791.11;104559;1264;100217;-74
2024/01/30 12:07:54;;;;;;;12.60;7.50;;;;;;;13.05;40.82;98790.05;104464;1259;97915;-75
2024/01/30 12:10:22;;;;;;;12.90;8.70;;;;;;;13.10;40.47;98788.10;104508;1264;98453;-75
2024/01/30 12:12:53;;;;;;;10.70;8.20;;;;;;;13.02;40.05;98786.61;104531;1260;103635;-76
2024/01/30 12:15:23;;;;;;;13.60;8.60;;;;;;;13.05;40.27;98785.59;104499;1263;100082;-75
2024/01/30 12:17:51;;;;;;;11.90;7.80;;;;;;;13.05;40.34;98780.70;104712;1264;99108;-75
2024/01/30 12:20:21;;;;;;;17.50;10.70;;;;;;;13.10;40.27;98773.93;104654;1262;99328;-74
2024/01/30 12:22:50;;;;;;;12.60;8.20;;;;;;;13.11;40.18;98773.68;104992;1259;98438;-75
2024/01/30 12:25:19;;;;;;;12.90;8.30;;;;;;;13.06;39.79;98773.92;105898;1258;103532;-75
2024/01/30 12:27:51;;;;;;;14.00;9.00;;;;;;;12.92;39.27;98770.80;104523;1264;101281;-75
2024/01/30 12:30:21;;;;;;;13.00;7.70;;;;;;;12.82;39.94;98770.69;104555;1258;100424;-75
2024/01/30 12:32:51;;;;;;;12.40;7.70;;;;;;;12.74;39.46;98761.60;104545;1262;99253;-76
2024/01/30 12:35:21;;;;;;;11.40;8.20;;;;;;;12.51;39.73;98761.88;104543;1264;98450;-76
2024/01/30 12:37:50;;;;;;;13.60;8.30;;;;;;;12.43;40.03;98761.11;104456;1259;102646;-75
2024/01/30 12:40:18;;;;;;;12.40;8.10;;;;;;;12.42;40.05;98758.53;104572;1265;101821;-76
2024/01/30 12:42:49;;;;;;;14.90;8.80;;;;;;;12.25;37.97;98753.27;104555;1257;100278;-76
2024/01/30 12:45:20;;;;;;;21.40;11.90;;;;;;;12.06;39.51;98754.91;104579;1259;97898;-76
2024/01/30 12:47:48;;;;;;;21.00;11.60;;;;;;;12.07;39.20;98750.46;104521;1262;99586;-75
2024/01/30 12:50:17;;;;;;;16.30;10.60;;;;;;;12.03;38.83;98755.11;104553;1262;102693;-88
2024/01/30 12:52:45;;;;;;;18.50;11.00;;;;;;;11.95;38.95;98758.20;104555;1263;100462;-88
2024/01/30 12:55:12;;;;;;;24.60;12.60;;;;;;;11.91;39.58;98761.28;104522;1262;99539;-88
2024/01/30 12:57:41;;;;;;;19.10;11.10;;;;;;;11.86;39.98;98766.12;104513;1262;98022;-87
2024/01/30 13:00:09;;;;;;;13.60;8.50;;;;;;;11.87;39.91;98761.38;104506;1259;98840;-88
2024/01/30 13:02:38;;;;;;;16.80;10.80;;;;;;;11.91;39.60;98764.12;104416;1268;102882;-81
2024/01/30 13:05:07;;;;;;;19.10;10.70;;;;;;;11.98;38.56;98763.36;104697;1262;101503;-81
2024/01/30 13:07:35;;;;;;;13.30;8.60;;;;;;;11.98;38.74;98762.81;104639;1259;100087;-76
2024/01/30 13:10:03;;;;;;;13.40;9.30;;;;;;;11.95;39.15;98767.08;104508;1264;97927;-76
2024/01/30 13:12:33;;;;;;;16.30;9.50;;;;;;;12.00;39.42;98762.22;104549;1258;98405;-76
2024/01/30 13:15:03;;;;;;;13.90;8.20;;;;;;;12.10;39.48;98760.16;104596;1262;103961;-76
2024/01/30 13:17:31;;;;;;;15.20;8.80;;;;;;;12.19;38.90;98765.73;105910;1258;101300;-76
2024/01/30 13:19:59;;;;;;;13.10;7.30;;;;;;;12.29;38.86;98764.19;106456;1258;99725;-76
2024/01/30 13:22:26;;;;;;;13.00;8.10;;;;;;;12.33;38.61;98760.91;104496;1259;97958;-76
2024/01/30 13:24:54;;;;;;;14.20;7.30;;;;;;;12.39;39.10;98756.33;104572;1264;98299;-76
2024/01/30 13:27:22;;;;;;;11.70;7.00;;;;;;;12.47;38.86;98751.91;104588;1273;103580;-81
2024/01/30 13:29:50;;;;;;;11.10;7.10;;;;;;;12.57;38.98;98750.66;104609;1263;101326;-76
2024/01/30 13:32:17;;;;;;;11.90;7.20;;;;;;;12.75;39.22;98748.23;104521;1264;99671;-81
2024/01/30 13:34:45;;;;;;;13.30;7.10;;;;;;;12.88;38.66;98748.44;104542;1262;98034;-81
2024/01/30 13:37:13;;;;;;;13.10;6.70;;;;;;;12.95;38.59;98748.63;104516;1259;98430;-81
2024/01/30 13:39:40;;;;;;;10.70;6.80;;;;;;;13.09;39.04;98745.69;104629;1262;103584;-80
2024/01/30 13:42:08;;;;;;;9.00;6.10;;;;;;;13.25;37.93;98743.90;104497;1257;102025;-81
2024/01/30 13:44:37;;;;;;;12.60;6.40;;;;;;;13.12;36.47;98742.42;104578;1262;107230;-80
2024/01/30 13:47:04;;;;;;;14.90;6.80;;;;;;;12.98;36.66;98740.40;104627;1265;97939;-87
2024/01/30 13:49:32;;;;;;;10.50;6.70;;;;;;;12.95;37.20;98743.37;104555;1260;98554;-87
2024/01/30 13:52:00;;;;;;;9.80;6.50;;;;;;;12.91;36.78;98745.84;104498;1264;102613;-86
2024/01/30 13:54:28;;;;;;;10.20;6.80;;;;;;;12.87;36.80;98739.98;104297;1259;102975;-87
2024/01/30 13:56:56;;;;;;;11.60;6.70;;;;;;;12.84;37.00;98738.40;104527;1265;100040;-87
2024/01/30 13:59:25;;;;;;;10.10;6.40;;;;;;;12.84;37.01;98736.60;104559;1262;97912;-87
2024/01/30 14:01:53;;;;;;;10.40;6.80;;;;;;;12.75;36.99;98739.27;104618;1262;98416;-80
2024/01/30 14:04:20;;;;;;;10.00;6.80;;;;;;;12.62;36.84;98740.25;104625;1263;103777;-79
2024/01/30 14:06:50;;;;;;;10.90;7.20;;;;;;;12.47;37.73;98738.17;104516;1262;101390;-76
2024/01/30 14:09:18;;;;;;;11.40;7.50;;;;;;;12.41;37.59;98733.69;104466;1259;98880;-76
2024/01/30 14:11:46;;;;;;;12.80;7.40;;;;;;;12.34;37.44;98731.40;104710;1261;97914;-78
2024/01/30 14:14:13;;;;;;;11.20;7.60;;;;;;;12.20;37.69;98733.14;104677;1264;98715;-77
2024/01/30 14:16:41;;;;;;;13.10;7.90;;;;;;;12.11;37.77;98734.58;104859;1262;103774;-76
2024/01/30 14:19:09;;;;;;;11.20;7.30;;;;;;;11.95;37.48;98730.79;104746;1259;101422;-74